createdAt,value
2023-11-12T00:04:58.003Z,11.38
2023-11-12T00:10:00.056Z,13.73
2023-11-12T00:15:02.247Z,8.18
2023-11-12T00:20:07.421Z,11.32
2023-11-12T00:25:14.465Z,11.93
2023-11-12T00:30:17.129Z,14.82
2023-11-12T00:35:19.846Z,10.95
2023-11-12T00:40:22.626Z,20.23
2023-11-12T00:45:24.717Z,17.00
2023-11-12T00:50:26.806Z,16.25
2023-11-12T00:55:28.866Z,15.10
2023-11-12T01:00:31.397Z,11.10
2023-11-12T01:05:33.718Z,12.75
2023-11-12T01:10:35.809Z,19.83
2023-11-12T01:15:37.912Z,21.67
2023-11-12T01:20:40.111Z,9.85
2023-11-12T01:25:45.025Z,15.57
2023-11-12T01:30:47.055Z,18.23
2023-11-12T01:35:49.118Z,15.90
2023-11-12T01:40:51.206Z,12.95
2023-11-12T01:45:53.278Z,13.50
2023-11-12T01:50:55.546Z,14.98
2023-11-12T01:55:58.280Z,14.85
2023-11-12T02:01:01.567Z,12.20
2023-11-12T02:06:04.867Z,14.32
2023-11-12T02:11:10.129Z,14.75
2023-11-12T02:16:12.363Z,11.82
2023-11-12T02:21:14.547Z,20.88
2023-11-12T02:26:16.865Z,15.60
2023-11-12T02:31:19.049Z,10.80
2023-11-12T02:36:26.508Z,12.75
2023-11-12T02:41:29.065Z,17.42
2023-11-12T02:46:31.156Z,14.93
2023-11-12T02:51:33.234Z,16.45
2023-11-12T02:56:35.854Z,20.77
2023-11-12T03:01:38.038Z,15.77
2023-11-12T03:06:40.115Z,17.63
2023-11-12T03:11:42.274Z,17.00
2023-11-12T03:16:44.911Z,16.42
2023-11-12T03:21:54.224Z,15.80
2023-11-12T03:26:56.356Z,19.55
2023-11-12T03:31:59.518Z,11.98
2023-11-12T03:37:01.603Z,21.40
2023-11-12T03:42:03.730Z,13.98
2023-11-12T03:47:06.088Z,10.32
2023-11-12T03:52:09.744Z,12.27
2023-11-12T03:57:11.834Z,10.05
2023-11-12T04:02:14.023Z,15.23
2023-11-12T04:07:17.190Z,9.77
2023-11-12T04:12:19.372Z,12.63
2023-11-12T04:17:21.838Z,16.63
2023-11-12T04:22:24.480Z,11.60
2023-11-12T04:27:26.555Z,15.90
2023-11-12T04:32:28.758Z,15.55
2023-11-12T04:37:30.773Z,13.52
2023-11-12T04:42:33.426Z,11.50
2023-11-12T04:47:35.529Z,18.02
2023-11-12T04:52:37.620Z,12.88
2023-11-12T04:57:39.939Z,16.60
2023-11-12T05:02:42.081Z,16.17
2023-11-12T05:07:44.421Z,13.95
2023-11-12T05:12:46.972Z,16.30
2023-11-12T05:17:49.993Z,15.43
2023-11-12T05:22:53.761Z,15.70
2023-11-12T05:27:56.178Z,19.23
2023-11-12T05:32:58.703Z,14.73
2023-11-12T05:38:00.870Z,17.00
2023-11-12T05:43:03.081Z,10.38
2023-11-12T05:48:05.391Z,13.55
2023-11-12T05:53:07.440Z,11.63
2023-11-12T05:58:09.842Z,14.73
2023-11-12T06:03:11.943Z,10.57
2023-11-12T06:08:14.108Z,14.95
2023-11-12T06:13:16.799Z,13.52
2023-11-12T06:18:19.142Z,15.02
2023-11-12T06:23:21.275Z,14.77
2023-11-12T06:28:24.077Z,8.15
2023-11-12T06:33:26.351Z,7.05
2023-11-12T06:38:28.481Z,9.02
2023-11-12T06:43:30.465Z,10.77
2023-11-12T06:48:33.096Z,12.30
2023-11-12T06:53:35.226Z,8.93
2023-11-12T06:58:37.274Z,13.25
2023-11-12T07:03:39.834Z,16.20
2023-11-12T07:08:42.313Z,12.85
2023-11-12T07:13:44.384Z,13.25
2023-11-12T07:18:53.895Z,10.85
2023-11-12T07:23:57.744Z,12.88
2023-11-12T07:28:59.982Z,9.68
2023-11-12T07:34:02.048Z,13.13
2023-11-12T07:39:04.702Z,15.80
2023-11-12T07:44:06.881Z,12.63
2023-11-12T07:49:09.355Z,15.18
2023-11-12T07:54:11.352Z,12.50
2023-11-12T07:59:13.426Z,14.50
2023-11-12T08:04:15.554Z,12.70
2023-11-12T08:09:17.768Z,18.30
2023-11-12T08:14:19.832Z,18.48
2023-11-12T08:19:22.337Z,14.23
2023-11-12T08:24:24.397Z,11.07
2023-11-12T08:29:26.421Z,21.95
2023-11-12T08:34:28.503Z,14.68
2023-11-12T08:39:30.572Z,10.93
2023-11-12T08:44:32.590Z,17.52
2023-11-12T08:49:34.591Z,16.52
2023-11-12T08:54:36.654Z,15.93
2023-11-12T08:59:38.723Z,18.25
2023-11-12T09:04:40.769Z,14.18
2023-11-12T09:09:42.965Z,14.93
2023-11-12T09:14:44.985Z,15.80
2023-11-12T09:19:46.999Z,14.07
2023-11-12T09:25:00.791Z,14.48
2023-11-12T09:30:12.022Z,19.50
2023-11-12T09:35:15.892Z,19.73
2023-11-12T09:40:18.191Z,20.83
2023-11-12T09:45:20.933Z,17.85
2023-11-12T09:50:24.274Z,18.00
2023-11-12T09:55:26.491Z,24.48
2023-11-12T10:00:28.892Z,21.40
2023-11-12T10:05:33.362Z,17.17
2023-11-12T10:10:35.916Z,18.75
2023-11-12T10:15:38.399Z,15.40
2023-11-12T10:20:41.636Z,11.23
2023-11-12T10:25:48.659Z,10.82
2023-11-12T10:30:55.132Z,6.90
2023-11-12T10:35:57.740Z,10.55
2023-11-12T10:41:03.247Z,6.90
2023-11-12T10:46:08.176Z,12.05
2023-11-12T10:51:13.341Z,11.90
2023-11-12T10:56:17.444Z,8.00
2023-11-12T11:01:19.900Z,9.73
2023-11-12T11:06:23.974Z,7.38
2023-11-12T11:11:26.516Z,7.13
2023-11-12T11:16:51.625Z,9.43
2023-11-12T11:22:33.767Z,6.15
2023-11-12T11:27:36.054Z,3.85
2023-11-12T11:32:38.652Z,1.83
2023-11-12T11:38:13.602Z,6.63
2023-11-12T11:43:24.981Z,4.82
2023-11-12T11:48:27.238Z,9.88
2023-11-12T11:53:30.063Z,16.90
2023-11-12T11:58:52.654Z,13.93
2023-11-12T12:04:07.487Z,22.30
2023-11-12T12:09:14.482Z,17.17
2023-11-12T12:14:16.876Z,18.75
2023-11-12T12:19:22.330Z,17.20
2023-11-12T12:24:24.694Z,25.73
2023-11-12T12:29:26.997Z,18.90
2023-11-12T12:34:40.324Z,18.98
2023-11-12T12:40:05.409Z,18.85
2023-11-12T12:45:17.970Z,22.43
2023-11-12T12:50:31.324Z,15.05
2023-11-12T12:55:33.405Z,18.73
2023-11-12T13:00:37.132Z,13.23
2023-11-12T13:05:39.715Z,10.35
2023-11-12T13:10:41.698Z,7.68
2023-11-12T13:15:44.258Z,9.43
2023-11-12T13:20:46.893Z,7.00
2023-11-12T13:25:51.088Z,3.88
2023-11-12T13:30:54.554Z,4.22
2023-11-12T13:36:01.190Z,3.30
2023-11-12T13:41:03.438Z,5.25
2023-11-12T13:46:08.188Z,4.28
2023-11-12T13:51:11.017Z,6.70
2023-11-12T13:56:13.820Z,6.13
2023-11-12T14:01:20.971Z,8.93
2023-11-12T14:06:23.151Z,10.15
2023-11-12T14:11:25.140Z,6.72
2023-11-12T14:16:27.655Z,8.52
2023-11-12T14:21:30.535Z,5.43
2023-11-12T14:26:33.727Z,7.75
2023-11-12T14:31:36.027Z,11.32
2023-11-12T14:36:38.266Z,8.60
2023-11-12T14:41:41.651Z,9.73
2023-11-12T14:46:44.890Z,11.40
2023-11-12T14:51:47.612Z,7.38
2023-11-12T14:56:53.685Z,9.48
2023-11-12T15:01:55.889Z,5.88
2023-11-12T15:06:57.940Z,9.82
2023-11-12T15:12:01.219Z,9.82
2023-11-12T15:17:03.402Z,10.10
2023-11-12T15:22:05.644Z,8.02
2023-11-12T15:27:07.814Z,9.60
2023-11-12T15:32:09.824Z,9.45
2023-11-12T15:37:11.997Z,8.18
2023-11-12T15:42:15.379Z,7.15
2023-11-12T15:47:20.455Z,11.07
2023-11-12T15:52:25.438Z,8.33
2023-11-12T15:57:27.576Z,8.07
2023-11-12T16:02:30.929Z,8.30
2023-11-12T16:07:33.485Z,11.00
2023-11-12T16:12:35.573Z,17.25
2023-11-12T16:17:38.283Z,12.23
2023-11-12T16:22:40.343Z,8.65
2023-11-12T16:27:42.480Z,8.82
2023-11-12T16:32:44.683Z,12.05
2023-11-12T16:37:49.485Z,11.13
2023-11-12T16:42:52.461Z,13.27
2023-11-12T16:47:55.071Z,12.65
2023-11-12T16:52:57.166Z,11.45
2023-11-12T16:57:59.249Z,11.57
2023-11-12T17:03:01.784Z,9.73
2023-11-12T17:08:05.486Z,12.75
2023-11-12T17:13:08.553Z,14.80
2023-11-12T17:18:10.640Z,12.40
2023-11-12T17:23:13.823Z,9.20
2023-11-12T17:28:15.915Z,12.05
2023-11-12T17:33:17.957Z,9.43
2023-11-12T17:38:19.943Z,15.30
2023-11-12T17:43:23.465Z,11.45
2023-11-12T17:48:25.602Z,14.48
2023-11-12T17:53:27.615Z,11.55
2023-11-12T17:58:29.756Z,11.05
2023-11-12T18:03:34.857Z,12.60
2023-11-12T18:08:39.935Z,11.68
2023-11-12T18:13:42.179Z,11.35
2023-11-12T18:18:44.286Z,8.75
2023-11-12T18:23:46.386Z,9.57
2023-11-12T18:28:48.459Z,11.30
2023-11-12T18:33:51.862Z,11.95
2023-11-12T18:38:53.946Z,12.57
2023-11-12T18:43:55.993Z,7.70
2023-11-12T18:48:58.095Z,10.75
2023-11-12T18:54:00.892Z,11.93
2023-11-12T18:59:07.421Z,12.05
2023-11-12T19:04:10.583Z,8.10
2023-11-12T19:09:16.923Z,9.10
2023-11-12T19:14:18.995Z,12.43
2023-11-12T19:19:21.283Z,9.23
2023-11-12T19:24:23.408Z,8.63
2023-11-12T19:29:26.627Z,13.02
2023-11-12T19:34:30.650Z,8.48
2023-11-12T19:39:34.058Z,8.23
2023-11-12T19:44:36.648Z,8.15
2023-11-12T19:49:38.781Z,7.90
2023-11-12T19:54:42.563Z,7.22
2023-11-12T19:59:44.636Z,5.97
2023-11-12T20:04:46.697Z,5.90
2023-11-12T20:09:49.025Z,3.10
2023-11-12T20:14:51.037Z,4.18
2023-11-12T20:19:53.229Z,2.38
2023-11-12T20:24:55.290Z,2.97
2023-11-12T20:29:59.129Z,1.38
2023-11-12T20:35:01.349Z,1.10
2023-11-12T20:40:09.589Z,0.88
2023-11-12T20:45:18.309Z,1.73
2023-11-12T20:50:21.039Z,1.00
2023-11-12T20:55:23.316Z,1.33
2023-11-12T21:00:27.544Z,3.30
2023-11-12T21:05:30.186Z,2.45
2023-11-12T21:10:35.480Z,1.92
2023-11-12T21:15:38.418Z,1.48
2023-11-12T21:20:40.492Z,1.30
2023-11-12T21:25:42.519Z,1.08
2023-11-12T21:30:46.230Z,1.85
2023-11-12T21:35:54.731Z,1.13
2023-11-12T21:40:57.321Z,1.10
2023-11-12T21:45:59.912Z,1.85
2023-11-12T21:51:02.059Z,1.85
2023-11-12T21:56:05.256Z,2.00
2023-11-12T22:01:11.287Z,2.97
2023-11-12T22:06:13.562Z,6.30
2023-11-12T22:11:15.630Z,8.65
2023-11-12T22:16:17.716Z,9.48
2023-11-12T22:21:19.733Z,9.10
2023-11-12T22:26:21.759Z,8.40
2023-11-12T22:31:24.348Z,9.52
2023-11-12T22:36:26.797Z,8.38
2023-11-12T22:41:28.860Z,8.23
2023-11-12T22:46:32.254Z,8.60
2023-11-12T22:51:35.078Z,7.85
2023-11-12T22:56:38.162Z,8.00
2023-11-12T23:01:40.368Z,6.30
2023-11-12T23:06:42.400Z,6.22
2023-11-12T23:11:44.439Z,10.23
2023-11-12T23:16:48.745Z,10.18
2023-11-12T23:21:52.202Z,7.68
2023-11-12T23:26:54.200Z,7.30
2023-11-12T23:31:56.482Z,7.50
2023-11-12T23:37:00.169Z,6.57
2023-11-12T23:42:02.302Z,8.02
2023-11-12T23:47:04.856Z,6.95
2023-11-12T23:52:07.198Z,11.63
2023-11-12T23:57:12.617Z,6.53
